Time;durP1;ratioP1;P1;durP2;ratioP2;P2;SDS_P1;SDS_P2;PMS_P1;PMS_P2;Temp;Humidity;BMP_temperature;BMP_pressure;BME280_temperature;BME280_humidity;BME280_pressure;Samples;Min_cycle;Max_cycle;Signal;HPM_P1;HPM_P2
2022/02/16 00:00:10;;;;;;;2.38;1.23;;;;;;;;;;5033394;28;20017;-69
2022/02/16 00:02:55;;;;;;;4.78;1.30;;;;;;;;;;5018810;28;20048;-69
2022/02/16 00:05:41;;;;;;;4.82;1.27;;;;;;;;;;5034308;28;20025;-69
2022/02/16 00:08:27;;;;;;;4.88;1.67;;;;;;;;;;5019473;28;20029;-70
2022/02/16 00:11:13;;;;;;;4.22;1.67;;;;;;;;;;5032905;28;20052;-68
2022/02/16 00:13:59;;;;;;;5.40;1.58;;;;;;;;;;5034302;28;20024;-68
2022/02/16 00:16:44;;;;;;;4.30;1.55;;;;;;;;;;5034804;28;20119;-68
2022/02/16 00:19:30;;;;;;;4.05;1.40;;;;;;;;;;5034123;28;20032;-67
2022/02/16 00:22:16;;;;;;;3.97;1.58;;;;;;;;;;5033998;28;20033;-67
2022/02/16 00:25:02;;;;;;;5.07;1.63;;;;;;;;;;5032430;28;20014;-67
2022/02/16 00:27:48;;;;;;;7.15;1.70;;;;;;;;;;5032803;28;20025;-67
2022/02/16 00:30:34;;;;;;;4.00;1.50;;;;;;;;;;5033104;28;20543;-67
2022/02/16 00:33:20;;;;;;;5.57;1.73;;;;;;;;;;5033902;28;20025;-66
2022/02/16 00:36:06;;;;;;;4.18;1.38;;;;;;;;;;5032876;28;20033;-69
2022/02/16 00:38:51;;;;;;;5.38;1.40;;;;;;;;;;5033798;28;20018;-66
2022/02/16 00:41:37;;;;;;;5.03;2.03;;;;;;;;;;5032954;28;20033;-69
2022/02/16 00:44:22;;;;;;;3.63;1.38;;;;;;;;;;5034272;28;20024;-68
2022/02/16 00:47:08;;;;;;;6.65;1.50;;;;;;;;;;5034127;28;20036;-66
2022/02/16 00:49:54;;;;;;;4.68;1.30;;;;;;;;;;5031048;28;20034;-64
2022/02/16 00:52:39;;;;;;;6.10;1.60;;;;;;;;;;5033589;28;20049;-66
2022/02/16 00:55:25;;;;;;;4.05;1.27;;;;;;;;;;5033761;28;20025;-67
2022/02/16 00:58:10;;;;;;;3.80;1.60;;;;;;;;;;5032749;28;20096;-68
2022/02/16 01:00:56;;;;;;;5.38;1.52;;;;;;;;;;5033047;28;20075;-67
2022/02/16 01:03:42;;;;;;;10.50;2.15;;;;;;;;;;5033318;28;20041;-66
2022/02/16 01:06:27;;;;;;;4.85;1.33;;;;;;;;;;5032874;28;20021;-65
2022/02/16 01:09:13;;;;;;;6.43;1.42;;;;;;;;;;5033660;28;20489;-64
2022/02/16 01:11:58;;;;;;;2.30;1.30;;;;;;;;;;5033510;28;20080;-68
2022/02/16 01:14:44;;;;;;;3.03;1.25;;;;;;;;;;5033436;28;20017;-68
2022/02/16 01:17:30;;;;;;;4.70;1.83;;;;;;;;;;5032770;28;20032;-68
2022/02/16 01:20:16;;;;;;;4.63;1.52;;;;;;;;;;5033969;28;20033;-68
2022/02/16 01:23:02;;;;;;;4.88;1.50;;;;;;;;;;5033006;28;20056;-67
2022/02/16 01:25:48;;;;;;;2.95;1.23;;;;;;;;;;5033850;28;20033;-67
2022/02/16 01:28:33;;;;;;;3.58;1.77;;;;;;;;;;5033126;28;20515;-67
2022/02/16 01:31:19;;;;;;;5.22;1.27;;;;;;;;;;5033207;28;20116;-67
2022/02/16 01:34:04;;;;;;;2.75;1.30;;;;;;;;;;5032917;28;20017;-68
2022/02/16 01:36:50;;;;;;;4.15;1.30;;;;;;;;;;5017451;28;20394;-68
2022/02/16 01:39:36;;;;;;;3.22;1.35;;;;;;;;;;5032026;28;20114;-68
2022/02/16 01:42:21;;;;;;;4.43;1.55;;;;;;;;;;5018114;28;20025;-68
2022/02/16 01:45:09;;;;;;;2.88;1.30;;;;;;;;;;5017900;28;20032;-69
2022/02/16 01:47:55;;;;;;;4.78;1.45;;;;;;;;;;5031458;28;20473;-66
2022/02/16 01:50:40;;;;;;;6.05;1.50;;;;;;;;;;5031906;28;20065;-65
2022/02/16 01:53:26;;;;;;;4.95;1.30;;;;;;;;;;5033054;28;20022;-66
2022/02/16 01:56:12;;;;;;;4.40;1.20;;;;;;;;;;5033495;28;20354;-66
2022/02/16 01:58:58;;;;;;;5.75;1.63;;;;;;;;;;5017139;28;20054;-66
2022/02/16 02:01:43;;;;;;;5.18;1.90;;;;;;;;;;5017882;28;20112;-65
2022/02/16 02:04:29;;;;;;;4.80;1.33;;;;;;;;;;5032013;28;20547;-67
2022/02/16 02:07:15;;;;;;;6.93;1.60;;;;;;;;;;5032122;28;20084;-68
2022/02/16 02:10:00;;;;;;;4.57;1.55;;;;;;;;;;5031400;28;20418;-67
2022/02/16 02:12:47;;;;;;;1.30;1.05;;;;;;;;;;5033407;28;20021;-67
2022/02/16 02:15:32;;;;;;;4.85;1.60;;;;;;;;;;5033352;28;20025;-67
2022/02/16 02:18:18;;;;;;;2.00;1.10;;;;;;;;;;5036657;28;20108;-67
2022/02/16 02:21:04;;;;;;;5.68;1.45;;;;;;;;;;5034886;28;20021;-65
2022/02/16 02:23:50;;;;;;;2.92;1.20;;;;;;;;;;5036138;28;20511;-66
2022/02/16 02:26:35;;;;;;;3.83;1.33;;;;;;;;;;5035000;28;20465;-66
2022/02/16 02:29:21;;;;;;;4.63;1.10;;;;;;;;;;5035802;28;20083;-66
2022/02/16 02:32:06;;;;;;;4.50;1.10;;;;;;;;;;5036510;28;20450;-66
2022/02/16 02:34:53;;;;;;;3.13;1.27;;;;;;;;;;5036576;28;20075;-66
2022/02/16 02:37:39;;;;;;;3.75;1.55;;;;;;;;;;5034568;28;20025;-66
2022/02/16 02:40:25;;;;;;;4.13;1.35;;;;;;;;;;5035022;28;20031;-66
2022/02/16 02:43:10;;;;;;;3.40;1.10;;;;;;;;;;5035421;28;20026;-65
2022/02/16 02:45:56;;;;;;;3.53;1.40;;;;;;;;;;5035854;28;20018;-65
2022/02/16 02:48:42;;;;;;;3.10;1.10;;;;;;;;;;5021027;28;20099;-66
2022/02/16 02:51:27;;;;;;;5.30;1.48;;;;;;;;;;5034663;28;20052;-66
2022/02/16 02:54:13;;;;;;;3.25;1.50;;;;;;;;;;5035121;28;20087;-64
2022/02/16 02:56:59;;;;;;;5.07;1.45;;;;;;;;;;5020825;28;20384;-65
2022/02/16 02:59:44;;;;;;;4.45;1.30;;;;;;;;;;5035660;28;20092;-66
2022/02/16 03:02:30;;;;;;;5.30;1.38;;;;;;;;;;5035336;28;20413;-66
2022/02/16 03:05:16;;;;;;;3.33;1.63;;;;;;;;;;5034542;28;20033;-66
2022/02/16 03:08:01;;;;;;;3.10;1.33;;;;;;;;;;5035222;28;20036;-66
2022/02/16 03:10:47;;;;;;;7.25;1.20;;;;;;;;;;5035167;28;20112;-66
2022/02/16 03:13:33;;;;;;;5.10;1.65;;;;;;;;;;5034291;28;20515;-64
2022/02/16 03:16:18;;;;;;;2.10;1.27;;;;;;;;;;5020560;28;20025;-67
2022/02/16 03:19:05;;;;;;;3.35;1.05;;;;;;;;;;5035821;28;20025;-67
2022/02/16 03:21:50;;;;;;;6.75;1.30;;;;;;;;;;5020901;28;20029;-68
2022/02/16 03:24:36;;;;;;;5.78;1.30;;;;;;;;;;5035119;28;20076;-68
2022/02/16 03:27:22;;;;;;;4.28;1.67;;;;;;;;;;5033812;28;20025;-68
2022/02/16 03:30:08;;;;;;;2.17;1.23;;;;;;;;;;5033824;28;20029;-68
2022/02/16 03:32:54;;;;;;;3.72;1.33;;;;;;;;;;5033355;28;20013;-67
2022/02/16 03:35:40;;;;;;;3.53;1.50;;;;;;;;;;5019565;28;20077;-69
2022/02/16 03:38:25;;;;;;;3.50;1.20;;;;;;;;;;5034328;28;20033;-68
2022/02/16 03:41:11;;;;;;;4.35;1.20;;;;;;;;;;5035292;28;20060;-68
2022/02/16 03:43:56;;;;;;;4.13;1.33;;;;;;;;;;5034787;28;20044;-67
2022/02/16 03:46:43;;;;;;;2.65;0.88;;;;;;;;;;5034689;28;20030;-68
2022/02/16 03:49:28;;;;;;;5.65;1.00;;;;;;;;;;5033981;28;20065;-68
2022/02/16 03:52:14;;;;;;;4.95;1.52;;;;;;;;;;5033847;28;20021;-68
2022/02/16 03:54:59;;;;;;;2.95;1.00;;;;;;;;;;5034084;28;20028;-68
2022/02/16 03:57:45;;;;;;;2.42;0.98;;;;;;;;;;5033257;28;20057;-66
2022/02/16 04:00:31;;;;;;;3.25;1.52;;;;;;;;;;5033500;28;20067;-66
2022/02/16 04:03:16;;;;;;;3.20;1.20;;;;;;;;;;5033886;28;20079;-69
2022/02/16 04:06:02;;;;;;;3.53;1.15;;;;;;;;;;5034328;28;20043;-66
2022/02/16 04:08:48;;;;;;;3.75;1.08;;;;;;;;;;5019518;28;20421;-66
2022/02/16 04:11:33;;;;;;;3.22;1.00;;;;;;;;;;5034329;28;20040;-65
2022/02/16 04:14:19;;;;;;;0.70;0.70;;;;;;;;;;5034378;28;20036;-68
2022/02/16 04:17:04;;;;;;;2.63;0.80;;;;;;;;;;5034290;28;20484;-68
2022/02/16 04:19:50;;;;;;;1.70;1.00;;;;;;;;;;5032376;28;20030;-69
2022/02/16 04:22:40;;;;;;;2.35;1.00;;;;;;;;;;5033908;28;20495;-69
2022/02/16 04:25:25;;;;;;;2.47;1.40;;;;;;;;;;5033698;28;20029;-70
2022/02/16 04:28:11;;;;;;;3.20;0.90;;;;;;;;;;5033771;28;20029;-69
2022/02/16 04:30:56;;;;;;;1.90;0.90;;;;;;;;;;5034063;28;20036;-68
2022/02/16 04:33:42;;;;;;;3.38;1.10;;;;;;;;;;5034095;28;20025;-69
2022/02/16 04:36:28;;;;;;;2.83;0.70;;;;;;;;;;5018875;28;20389;-69
2022/02/16 04:39:15;;;;;;;1.50;0.80;;;;;;;;;;5032042;28;20083;-67
2022/02/16 04:42:01;;;;;;;1.95;0.80;;;;;;;;;;5032741;28;20029;-68
2022/02/16 04:44:46;;;;;;;3.45;1.17;;;;;;;;;;5033795;28;20021;-68
2022/02/16 04:47:32;;;;;;;2.70;0.88;;;;;;;;;;5033754;28;20038;-68
2022/02/16 04:50:18;;;;;;;1.30;0.90;;;;;;;;;;5033850;28;20095;-69
2022/02/16 04:53:03;;;;;;;2.92;0.80;;;;;;;;;;5032870;28;20384;-65
2022/02/16 04:55:49;;;;;;;1.42;0.73;;;;;;;;;;5034100;28;20025;-65
2022/02/16 04:58:34;;;;;;;4.47;0.90;;;;;;;;;;5032919;28;20448;-66
2022/02/16 05:01:20;;;;;;;0.93;0.80;;;;;;;;;;5033603;28;20496;-66
2022/02/16 05:04:06;;;;;;;3.17;0.85;;;;;;;;;;5034226;28;20082;-66
2022/02/16 05:06:52;;;;;;;1.00;0.85;;;;;;;;;;5033885;28;20013;-66
2022/02/16 05:09:37;;;;;;;3.47;0.80;;;;;;;;;;5019143;28;20029;-66
2022/02/16 05:12:23;;;;;;;2.58;0.77;;;;;;;;;;5033466;28;20021;-67
2022/02/16 05:15:08;;;;;;;1.77;0.98;;;;;;;;;;5033177;28;20477;-66
2022/02/16 05:17:54;;;;;;;2.08;0.85;;;;;;;;;;5032138;28;20022;-66
2022/02/16 05:20:40;;;;;;;1.05;0.60;;;;;;;;;;5018995;28;20088;-66
2022/02/16 05:23:25;;;;;;;1.05;0.77;;;;;;;;;;5033380;28;20017;-67
2022/02/16 05:26:11;;;;;;;1.05;0.70;;;;;;;;;;5032209;28;20112;-67
2022/02/16 05:28:57;;;;;;;2.03;1.00;;;;;;;;;;5032944;28;20037;-67
2022/02/16 05:31:42;;;;;;;1.77;0.73;;;;;;;;;;5033316;28;20022;-66
2022/02/16 05:34:28;;;;;;;2.50;0.68;;;;;;;;;;5032653;28;20033;-65
2022/02/16 05:37:14;;;;;;;1.38;0.77;;;;;;;;;;5032989;28;20053;-66
2022/02/16 05:39:59;;;;;;;1.65;0.80;;;;;;;;;;5033258;28;20119;-67
2022/02/16 05:42:45;;;;;;;3.10;0.90;;;;;;;;;;5033194;28;20056;-66
2022/02/16 05:45:31;;;;;;;1.27;0.90;;;;;;;;;;5033094;28;20041;-66
2022/02/16 05:48:20;;;;;;;2.65;0.75;;;;;;;;;;5032997;28;20444;-68
2022/02/16 05:51:05;;;;;;;2.00;0.80;;;;;;;;;;5036350;28;20026;-68
2022/02/16 05:53:51;;;;;;;2.08;0.80;;;;;;;;;;5036914;28;20351;-68
2022/02/16 05:56:36;;;;;;;1.70;0.80;;;;;;;;;;5022497;28;20026;-68
2022/02/16 05:59:22;;;;;;;1.65;0.88;;;;;;;;;;5021858;28;20046;-68
2022/02/16 06:02:07;;;;;;;1.27;0.90;;;;;;;;;;5037031;28;20040;-66
2022/02/16 06:04:53;;;;;;;1.42;0.80;;;;;;;;;;5036753;28;20017;-68
2022/02/16 06:07:39;;;;;;;1.30;0.75;;;;;;;;;;5022163;28;20108;-68
2022/02/16 06:10:24;;;;;;;7.63;1.42;;;;;;;;;;5036572;28;20036;-69
2022/02/16 06:13:12;;;;;;;1.33;0.80;;;;;;;;;;5035706;28;20502;-68
2022/02/16 06:15:57;;;;;;;2.25;0.80;;;;;;;;;;5036015;28;20029;-68
2022/02/16 06:18:43;;;;;;;2.60;0.80;;;;;;;;;;5036455;28;20032;-68
2022/02/16 06:21:28;;;;;;;2.05;1.00;;;;;;;;;;5036053;28;20057;-65
2022/02/16 06:24:14;;;;;;;2.30;0.70;;;;;;;;;;5036313;28;20104;-68
2022/02/16 06:26:59;;;;;;;1.58;1.00;;;;;;;;;;5036236;28;20118;-68
2022/02/16 06:29:45;;;;;;;1.65;0.75;;;;;;;;;;5035503;28;20069;-68
2022/02/16 06:32:31;;;;;;;1.85;1.20;;;;;;;;;;5035956;28;20468;-69
2022/02/16 06:35:16;;;;;;;1.73;0.90;;;;;;;;;;5020866;28;20056;-69
2022/02/16 06:38:03;;;;;;;1.02;0.80;;;;;;;;;;5036105;28;20036;-69
2022/02/16 06:40:50;;;;;;;2.70;0.70;;;;;;;;;;5035867;28;20532;-66
2022/02/16 06:43:35;;;;;;;2.00;0.80;;;;;;;;;;5035409;28;20448;-69
2022/02/16 06:46:21;;;;;;;1.70;0.80;;;;;;;;;;5034626;28;20024;-69
2022/02/16 06:49:07;;;;;;;1.73;0.90;;;;;;;;;;5035633;28;20033;-67
2022/02/16 06:51:53;;;;;;;0.85;0.73;;;;;;;;;;5035557;28;20028;-69
2022/02/16 06:54:39;;;;;;;3.10;0.80;;;;;;;;;;5035242;28;20029;-68
2022/02/16 06:57:24;;;;;;;3.28;1.05;;;;;;;;;;5035359;28;20071;-72
2022/02/16 07:00:10;;;;;;;5.13;1.63;;;;;;;;;;5035435;28;20152;-66
2022/02/16 07:02:55;;;;;;;1.90;1.13;;;;;;;;;;5033493;28;20018;-64
2022/02/16 07:05:41;;;;;;;4.05;0.90;;;;;;;;;;5035997;28;20045;-68
2022/02/16 07:08:26;;;;;;;3.45;0.95;;;;;;;;;;5035432;28;20021;-70
2022/02/16 07:11:12;;;;;;;0.95;0.80;;;;;;;;;;5035454;28;20025;-68
2022/02/16 07:13:58;;;;;;;1.80;0.80;;;;;;;;;;5035382;28;20057;-68
2022/02/16 07:16:43;;;;;;;1.60;0.70;;;;;;;;;;5034809;28;20072;-69
2022/02/16 07:19:29;;;;;;;1.38;0.73;;;;;;;;;;5033785;28;20028;-68
2022/02/16 07:22:15;;;;;;;2.92;0.80;;;;;;;;;;5020522;28;20022;-70
2022/02/16 07:25:02;;;;;;;1.83;0.85;;;;;;;;;;5035064;28;20022;-65
2022/02/16 07:27:48;;;;;;;2.20;1.00;;;;;;;;;;5034040;28;20025;-65
2022/02/16 07:30:33;;;;;;;1.48;0.77;;;;;;;;;;5035337;28;20025;-66
2022/02/16 07:33:19;;;;;;;2.65;0.98;;;;;;;;;;5033555;28;20444;-66
2022/02/16 07:36:05;;;;;;;2.38;0.85;;;;;;;;;;5034884;28;20045;-68
2022/02/16 07:38:50;;;;;;;9.05;4.78;;;;;;;;;;5033502;28;20068;-66
2022/02/16 07:41:36;;;;;;;2.72;1.40;;;;;;;;;;5034127;28;20112;-64
2022/02/16 07:44:22;;;;;;;2.40;1.15;;;;;;;;;;5036038;28;20096;-67
2022/02/16 07:47:10;;;;;;;4.38;0.95;;;;;;;;;;5033414;28;20511;-64
2022/02/16 07:49:56;;;;;;;4.10;1.10;;;;;;;;;;5033395;28;20040;-67
2022/02/16 07:52:41;;;;;;;3.30;1.23;;;;;;;;;;5034410;28;20075;-66
2022/02/16 07:55:27;;;;;;;2.33;0.82;;;;;;;;;;5034747;28;20495;-67
2022/02/16 07:58:13;;;;;;;2.03;0.70;;;;;;;;;;5032865;28;20068;-66
2022/02/16 08:00:58;;;;;;;1.83;0.90;;;;;;;;;;5033991;28;20132;-66
2022/02/16 08:03:44;;;;;;;2.78;1.10;;;;;;;;;;5033370;28;20021;-69
2022/02/16 08:06:29;;;;;;;1.73;1.10;;;;;;;;;;5033356;28;20233;-65
2022/02/16 08:09:15;;;;;;;2.58;1.58;;;;;;;;;;5018392;28;20030;-67
2022/02/16 08:12:01;;;;;;;3.17;1.05;;;;;;;;;;5033156;28;20472;-68
2022/02/16 08:14:47;;;;;;;3.40;1.05;;;;;;;;;;5033205;28;20051;-67
2022/02/16 08:17:32;;;;;;;1.92;0.80;;;;;;;;;;5034185;28;20071;-67
2022/02/16 08:20:18;;;;;;;1.83;1.00;;;;;;;;;;5019486;28;20033;-68
2022/02/16 08:23:04;;;;;;;1.65;1.10;;;;;;;;;;5032339;28;20025;-70
2022/02/16 08:25:49;;;;;;;1.77;0.98;;;;;;;;;;5032953;28;20104;-68
2022/02/16 08:28:35;;;;;;;1.65;0.82;;;;;;;;;;5033976;28;20025;-67
2022/02/16 08:31:21;;;;;;;2.58;1.02;;;;;;;;;;5033318;28;20029;-68
2022/02/16 08:34:07;;;;;;;2.53;1.17;;;;;;;;;;5017731;28;20376;-68
2022/02/16 08:36:55;;;;;;;1.00;0.73;;;;;;;;;;5033864;28;20144;-65
2022/02/16 08:39:41;;;;;;;1.92;1.08;;;;;;;;;;5017189;28;20021;-65
2022/02/16 08:42:26;;;;;;;8.68;4.22;;;;;;;;;;5033267;28;20087;-66
2022/02/16 08:45:12;;;;;;;9.75;5.28;;;;;;;;;;5033747;28;20064;-66
2022/02/16 08:47:57;;;;;;;1.88;0.90;;;;;;;;;;5033682;28;20087;-69
2022/02/16 08:50:43;;;;;;;1.00;0.80;;;;;;;;;;5032900;28;20108;-64
2022/02/16 08:53:29;;;;;;;2.15;0.95;;;;;;;;;;5032401;28;20025;-66
2022/02/16 08:56:14;;;;;;;2.33;0.90;;;;;;;;;;5034336;28;20033;-66
2022/02/16 08:59:00;;;;;;;2.30;0.90;;;;;;;;;;5033008;28;20053;-68
2022/02/16 09:01:46;;;;;;;2.17;0.82;;;;;;;;;;5032020;28;20036;-66
2022/02/16 09:04:32;;;;;;;1.58;0.82;;;;;;;;;;5033432;28;20381;-67
2022/02/16 09:07:30;;;;;;;1.20;0.90;;;;;;;;;;5032351;28;20380;-66
2022/02/16 09:10:15;;;;;;;1.13;0.90;;;;;;;;;;5032045;28;20033;-65
2022/02/16 09:13:01;;;;;;;1.90;1.27;;;;;;;;;;5034048;28;20021;-64
2022/02/16 09:15:47;;;;;;;5.65;2.88;;;;;;;;;;5032324;28;20411;-64
2022/02/16 09:18:32;;;;;;;4.13;1.17;;;;;;;;;;5019109;28;20539;-67
2022/02/16 09:21:18;;;;;;;2.10;0.98;;;;;;;;;;5033987;28;20025;-63
2022/02/16 09:24:04;;;;;;;2.67;0.80;;;;;;;;;;5032218;28;20029;-64
2022/02/16 09:26:52;;;;;;;1.50;1.00;;;;;;;;;;5037664;28;20392;-70
2022/02/16 09:29:37;;;;;;;3.60;1.00;;;;;;;;;;5037258;28;20540;-69
2022/02/16 09:32:23;;;;;;;3.13;1.33;;;;;;;;;;5037280;28;20028;-70
2022/02/16 09:35:09;;;;;;;2.97;1.70;;;;;;;;;;5035946;28;20060;-69
2022/02/16 09:37:55;;;;;;;4.95;2.60;;;;;;;;;;5036124;28;20032;-69
2022/02/16 09:40:45;;;;;;;4.13;1.10;;;;;;;;;;5036300;28;20079;-71
2022/02/16 09:43:30;;;;;;;1.13;1.00;;;;;;;;;;5035772;28;20033;-66
2022/02/16 09:46:17;;;;;;;1.50;1.00;;;;;;;;;;5036493;28;20079;-67
2022/02/16 09:49:03;;;;;;;0.70;0.70;;;;;;;;;;5020168;28;20516;-66
2022/02/16 09:51:49;;;;;;;2.80;1.00;;;;;;;;;;5022515;28;20374;-65
2022/02/16 09:54:36;;;;;;;2.05;1.33;;;;;;;;;;5035310;28;20515;-66
2022/02/16 09:57:21;;;;;;;1.17;0.93;;;;;;;;;;5035512;28;20036;-66
2022/02/16 10:00:08;;;;;;;4.20;1.23;;;;;;;;;;5036176;28;20041;-65
2022/02/16 10:02:54;;;;;;;1.75;0.73;;;;;;;;;;5035081;28;20044;-69
2022/02/16 10:05:40;;;;;;;1.48;0.65;;;;;;;;;;5036678;28;20590;-67
2022/02/16 10:08:45;;;;;;;1.95;0.80;;;;;;;;;;5037022;28;20037;-67
2022/02/16 10:11:30;;;;;;;2.47;0.70;;;;;;;;;;5035172;28;20033;-67
2022/02/16 10:14:20;;;;;;;3.20;1.75;;;;;;;;;;5021438;28;20056;-67
2022/02/16 10:17:15;;;;;;;3.28;1.60;;;;;;;;;;5035091;28;20029;-66
2022/02/16 10:20:02;;;;;;;0.60;0.60;;;;;;;;;;5036477;28;20040;-71
2022/02/16 10:22:49;;;;;;;1.27;0.60;;;;;;;;;;5035511;28;20022;-67
2022/02/16 10:25:36;;;;;;;1.48;0.85;;;;;;;;;;5035201;28;20022;-68
2022/02/16 10:28:22;;;;;;;0.60;0.60;;;;;;;;;;5034894;28;20032;-68
2022/02/16 10:31:08;;;;;;;0.68;0.50;;;;;;;;;;5035240;28;20091;-66
2022/02/16 10:33:55;;;;;;;0.93;0.70;;;;;;;;;;5034377;28;20017;-67
2022/02/16 10:36:41;;;;;;;1.00;0.60;;;;;;;;;;5034674;28;20037;-68
2022/02/16 10:39:27;;;;;;;1.90;0.80;;;;;;;;;;5034890;28;20025;-64
2022/02/16 10:42:20;;;;;;;1.35;0.73;;;;;;;;;;5034883;28;20104;-68
2022/02/16 10:45:12;;;;;;;0.60;0.60;;;;;;;;;;5036048;28;20045;-67
2022/02/16 10:48:01;;;;;;;1.35;0.70;;;;;;;;;;5036142;28;20079;-66
2022/02/16 10:50:48;;;;;;;1.47;0.80;;;;;;;;;;5034686;28;20064;-67
2022/02/16 10:53:34;;;;;;;1.95;0.80;;;;;;;;;;5034105;28;20616;-66
2022/02/16 10:56:19;;;;;;;6.20;0.85;;;;;;;;;;5035656;28;20418;-67
2022/02/16 10:59:05;;;;;;;1.33;0.85;;;;;;;;;;5035159;28;20057;-68
2022/02/16 11:01:51;;;;;;;1.33;1.08;;;;;;;;;;5035173;28;20049;-68
2022/02/16 11:04:37;;;;;;;2.45;1.00;;;;;;;;;;5035254;28;20017;-67
2022/02/16 11:07:23;;;;;;;0.82;0.52;;;;;;;;;;5034021;28;20049;-68
2022/02/16 11:10:09;;;;;;;1.10;1.00;;;;;;;;;;5034299;28;20026;-68
2022/02/16 11:12:56;;;;;;;2.30;0.90;;;;;;;;;;5033930;28;20022;-69
2022/02/16 11:15:42;;;;;;;1.83;0.98;;;;;;;;;;5034873;28;20487;-69
2022/02/16 11:18:30;;;;;;;1.20;0.80;;;;;;;;;;5065985;22;20368;-67
2022/02/16 11:21:17;;;;;;;1.58;1.08;;;;;;;;;;5054423;28;20028;-67
2022/02/16 11:24:04;;;;;;;1.17;0.60;;;;;;;;;;5040114;28;20028;-68
2022/02/16 11:26:51;;;;;;;0.90;0.65;;;;;;;;;;5052819;28;20419;-70
2022/02/16 11:29:37;;;;;;;1.30;0.90;;;;;;;;;;5042406;28;20106;-67
2022/02/16 11:32:25;;;;;;;1.00;0.80;;;;;;;;;;5056241;28;20039;-69
2022/02/16 11:35:10;;;;;;;0.70;0.70;;;;;;;;;;5045239;28;20353;-64
2022/02/16 11:38:02;;;;;;;0.80;0.60;;;;;;;;;;5054508;28;20024;-68
2022/02/16 11:40:50;;;;;;;1.50;0.80;;;;;;;;;;5054530;28;20064;-68
2022/02/16 11:43:54;;;;;;;1.35;0.90;;;;;;;;;;5054066;28;20024;-68
2022/02/16 11:46:40;;;;;;;0.75;0.75;;;;;;;;;;5029405;28;20021;-69
2022/02/16 11:49:29;;;;;;;1.38;0.80;;;;;;;;;;5033650;28;20036;-70
2022/02/16 11:52:34;;;;;;;1.20;0.90;;;;;;;;;;5048101;28;20020;-71
2022/02/16 11:55:20;;;;;;;0.70;0.70;;;;;;;;;;5057019;28;20074;-69
2022/02/16 11:58:13;;;;;;;2.35;0.90;;;;;;;;;;5051131;28;20036;-63
2022/02/16 12:01:00;;;;;;;1.15;0.90;;;;;;;;;;5066426;28;20035;-64
2022/02/16 12:03:52;;;;;;;0.50;0.50;;;;;;;;;;5047509;28;20029;-67
2022/02/16 12:06:37;;;;;;;1.08;0.90;;;;;;;;;;5053754;28;20136;-65
2022/02/16 12:09:27;;;;;;;0.77;0.70;;;;;;;;;;5053386;28;20056;-63
2022/02/16 12:12:13;;;;;;;2.67;0.82;;;;;;;;;;5046194;28;20108;-68
2022/02/16 12:14:58;;;;;;;0.93;0.80;;;;;;;;;;5038802;28;20029;-68
2022/02/16 12:17:44;;;;;;;0.88;0.70;;;;;;;;;;5052689;28;20021;-71
2022/02/16 12:20:29;;;;;;;0.60;0.60;;;;;;;;;;5053972;28;20395;-70
2022/02/16 12:23:15;;;;;;;0.60;0.60;;;;;;;;;;5053670;28;20020;-71
2022/02/16 12:26:01;;;;;;;0.98;0.70;;;;;;;;;;5054010;28;20024;-71
2022/02/16 12:28:47;;;;;;;0.80;0.65;;;;;;;;;;5043858;28;20025;-70
2022/02/16 12:31:34;;;;;;;0.60;0.60;;;;;;;;;;5049606;28;20020;-66
2022/02/16 12:34:21;;;;;;;0.60;0.60;;;;;;;;;;5036647;28;20024;-67
2022/02/16 12:37:07;;;;;;;1.00;0.80;;;;;;;;;;5052093;28;20048;-66
2022/02/16 12:40:05;;;;;;;1.48;0.65;;;;;;;;;;5053281;28;20040;-68
2022/02/16 12:42:50;;;;;;;0.70;0.70;;;;;;;;;;5062896;28;20028;-67
2022/02/16 12:45:36;;;;;;;1.75;0.70;;;;;;;;;;5053127;28;20021;-68
2022/02/16 12:48:21;;;;;;;1.75;0.77;;;;;;;;;;5053206;28;20446;-66
2022/02/16 12:51:08;;;;;;;0.50;0.50;;;;;;;;;;5053895;28;20026;-66
2022/02/16 12:53:54;;;;;;;0.90;0.60;;;;;;;;;;5061217;28;20048;-66
2022/02/16 12:56:41;;;;;;;0.52;0.50;;;;;;;;;;5052475;28;20031;-64
2022/02/16 12:59:28;;;;;;;4.82;2.10;;;;;;;;;;5047658;28;20108;-67
2022/02/16 13:02:15;;;;;;;3.97;1.90;;;;;;;;;;5032329;28;20467;-65
2022/02/16 13:05:04;;;;;;;0.65;0.60;;;;;;;;;;5049693;28;20090;-71
2022/02/16 13:07:49;;;;;;;0.50;0.50;;;;;;;;;;5039027;28;20032;-67
2022/02/16 13:10:36;;;;;;;0.60;0.60;;;;;;;;;;5037065;28;20033;-68
2022/02/16 13:13:24;;;;;;;0.65;0.60;;;;;;;;;;5053403;28;20040;-70
2022/02/16 13:16:17;;;;;;;0.50;0.50;;;;;;;;;;5053164;28;20475;-69
2022/02/16 13:19:03;;;;;;;1.95;0.73;;;;;;;;;;5051297;28;20079;-69
2022/02/16 13:21:48;;;;;;;1.77;1.52;;;;;;;;;;5052389;28;20028;-68
2022/02/16 13:24:33;;;;;;;1.08;0.93;;;;;;;;;;5038568;28;20383;-67
2022/02/16 13:27:18;;;;;;;0.77;0.60;;;;;;;;;;5052215;28;20468;-69
2022/02/16 13:30:05;;;;;;;1.35;0.77;;;;;;;;;;5049772;28;20112;-69
2022/02/16 13:32:51;;;;;;;1.15;0.73;;;;;;;;;;5050107;28;20016;-71
2022/02/16 13:35:36;;;;;;;1.08;0.63;;;;;;;;;;5047935;28;20083;-68
2022/02/16 13:38:24;;;;;;;1.77;0.70;;;;;;;;;;5029685;28;20035;-67
2022/02/16 13:41:18;;;;;;;0.50;0.50;;;;;;;;;;5053523;28;20030;-69
2022/02/16 13:44:04;;;;;;;2.10;1.00;;;;;;;;;;5049114;28;20037;-72
2022/02/16 13:46:50;;;;;;;0.85;0.50;;;;;;;;;;5045405;28;20033;-66
2022/02/16 13:49:35;;;;;;;0.95;0.55;;;;;;;;;;5049488;28;20048;-69
2022/02/16 13:52:30;;;;;;;0.50;0.50;;;;;;;;;;5038345;28;20428;-67
2022/02/16 13:55:15;;;;;;;0.40;0.40;;;;;;;;;;5049666;28;20070;-67
2022/02/16 13:58:07;;;;;;;0.60;0.50;;;;;;;;;;5050429;28;20020;-66
2022/02/16 14:01:03;;;;;;;1.70;0.60;;;;;;;;;;5042946;28;20442;-71
2022/02/16 14:04:05;;;;;;;0.73;0.50;;;;;;;;;;5048292;28;20035;-66
2022/02/16 14:06:50;;;;;;;0.70;0.60;;;;;;;;;;5051300;28;20024;-66
2022/02/16 14:09:35;;;;;;;0.50;0.50;;;;;;;;;;5033033;28;20032;-64
2022/02/16 14:12:21;;;;;;;0.50;0.50;;;;;;;;;;5047910;28;20036;-64
2022/02/16 14:15:06;;;;;;;2.35;0.60;;;;;;;;;;5055374;28;20538;-65
2022/02/16 14:17:52;;;;;;;2.30;0.60;;;;;;;;;;5053940;28;20022;-66
2022/02/16 14:20:37;;;;;;;0.65;0.65;;;;;;;;;;5072822;28;20030;-68
2022/02/16 14:23:22;;;;;;;2.75;0.70;;;;;;;;;;5061941;28;20122;-66
2022/02/16 14:26:08;;;;;;;0.68;0.52;;;;;;;;;;5073773;28;20102;-68
2022/02/16 14:28:53;;;;;;;0.98;0.80;;;;;;;;;;5067204;28;20265;-65
2022/02/16 14:31:38;;;;;;;0.50;0.50;;;;;;;;;;5065717;28;20383;-65
2022/02/16 14:34:23;;;;;;;1.38;0.63;;;;;;;;;;5068384;28;20107;-64
2022/02/16 14:37:12;;;;;;;0.52;0.52;;;;;;;;;;5072804;28;20418;-68
2022/02/16 14:39:57;;;;;;;1.02;0.50;;;;;;;;;;5054981;28;20024;-70
2022/02/16 14:42:43;;;;;;;1.65;0.52;;;;;;;;;;5069964;28;20907;-68
2022/02/16 14:45:28;;;;;;;1.10;0.52;;;;;;;;;;5072831;28;20410;-65
2022/02/16 14:48:14;;;;;;;0.63;0.60;;;;;;;;;;5057319;28;20051;-68
2022/02/16 14:50:59;;;;;;;0.60;0.60;;;;;;;;;;5060485;28;20057;-66
2022/02/16 14:53:44;;;;;;;0.88;0.60;;;;;;;;;;5068188;28;20028;-66
2022/02/16 14:56:29;;;;;;;0.50;0.50;;;;;;;;;;5086174;28;20024;-76
2022/02/16 14:59:15;;;;;;;0.70;0.70;;;;;;;;;;5086533;28;20016;-64
2022/02/16 15:02:01;;;;;;;1.77;0.60;;;;;;;;;;5072188;28;20043;-65
2022/02/16 15:04:47;;;;;;;0.52;0.52;;;;;;;;;;5073442;28;20124;-65
2022/02/16 15:07:32;;;;;;;0.70;0.50;;;;;;;;;;5073101;28;20039;-67
2022/02/16 15:10:17;;;;;;;1.52;0.57;;;;;;;;;;5054837;28;20502;-67
2022/02/16 15:13:02;;;;;;;1.48;0.60;;;;;;;;;;5081720;28;20028;-66
2022/02/16 15:15:48;;;;;;;1.00;0.60;;;;;;;;;;5057101;28;20032;-69
2022/02/16 15:18:33;;;;;;;1.35;0.55;;;;;;;;;;5051875;28;20499;-71
2022/02/16 15:21:19;;;;;;;0.55;0.50;;;;;;;;;;5056231;28;20476;-68
2022/02/16 15:24:05;;;;;;;6.75;3.60;;;;;;;;;;5057270;28;20031;-70
2022/02/16 15:26:50;;;;;;;1.92;1.08;;;;;;;;;;5064920;28;20032;-70
2022/02/16 15:29:36;;;;;;;0.85;0.70;;;;;;;;;;5076490;28;20033;-68
2022/02/16 15:32:21;;;;;;;1.40;0.70;;;;;;;;;;5072004;28;20024;-71
2022/02/16 15:35:06;;;;;;;0.57;0.57;;;;;;;;;;5065796;28;20180;-73
2022/02/16 15:37:52;;;;;;;0.65;0.50;;;;;;;;;;5069315;28;20017;-68
2022/02/16 15:40:37;;;;;;;2.83;0.65;;;;;;;;;;5075743;28;20021;-68
2022/02/16 15:43:23;;;;;;;0.93;0.63;;;;;;;;;;5055038;28;20392;-67
2022/02/16 15:46:08;;;;;;;0.98;0.88;;;;;;;;;;5054992;28;20031;-69
2022/02/16 15:48:54;;;;;;;0.60;0.60;;;;;;;;;;5055526;28;20043;-69
2022/02/16 15:51:39;;;;;;;0.68;0.63;;;;;;;;;;5059449;28;20068;-64
2022/02/16 15:54:24;;;;;;;0.85;0.60;;;;;;;;;;5082287;28;20028;-70
2022/02/16 15:57:09;;;;;;;0.50;0.50;;;;;;;;;;5059645;28;20074;-69
2022/02/16 15:59:56;;;;;;;0.40;0.40;;;;;;;;;;5058776;28;20528;-69
2022/02/16 16:02:41;;;;;;;0.55;0.50;;;;;;;;;;5059520;28;20032;-68
2022/02/16 16:05:26;;;;;;;1.17;0.52;;;;;;;;;;5059271;28;20048;-69
2022/02/16 16:08:12;;;;;;;1.00;0.70;;;;;;;;;;5068700;28;20087;-72
2022/02/16 16:10:58;;;;;;;0.50;0.50;;;;;;;;;;5067230;28;20025;-69
2022/02/16 16:13:44;;;;;;;0.70;0.60;;;;;;;;;;5060112;28;20063;-66
2022/02/16 16:16:30;;;;;;;0.70;0.50;;;;;;;;;;5065350;28;20024;-66
2022/02/16 16:19:15;;;;;;;0.60;0.60;;;;;;;;;;5066728;28;20044;-67
2022/02/16 16:22:02;;;;;;;0.50;0.50;;;;;;;;;;5067952;28;20027;-67
2022/02/16 16:24:48;;;;;;;0.75;0.60;;;;;;;;;;5059421;28;20032;-65
2022/02/16 16:27:34;;;;;;;1.92;0.65;;;;;;;;;;5053031;28;20383;-69
2022/02/16 16:30:19;;;;;;;1.67;0.75;;;;;;;;;;5074417;28;20038;-66
2022/02/16 16:33:05;;;;;;;0.50;0.50;;;;;;;;;;5063080;28;20040;-66
2022/02/16 16:35:50;;;;;;;0.98;0.70;;;;;;;;;;5069136;28;20027;-65